• Join FlightAware (Why Join?)
  • Login
  • US Flag 
 
03:43AM EST


 

Airport Tracker/Info


-or-


 

Live Flight TrackerFlight Track Log ✈ CLH161 ✈ 25-Apr-2012 ✈ EDDP / LEJ - EDDF / FRA

Flight Track Log - Related Links

Times and Time Zones

All times are in EDT time to prevent confusion due to time zone crossing. See the CLH161 flight status page for this flight to view local times or setup timezone preferences in your user account.

Time Position Orientation Groundspeed Altitude Reporting Facility
EDT Latitude Longitude Course Direction KTS MPH feet Rate Location/Type
05:04AM 51.4121 12.2025 241° Southwest  Level Estimated
05:05AM 51.3642 12.0671 240° Southwest  Level Estimated
05:06AM 51.3163 11.9320 240° Southwest  Level Estimated
05:07AM 51.2681 11.7972 240° Southwest  Level Estimated
05:08AM 51.2199 11.6627 240° Southwest  Level Estimated
05:09AM 51.1714 11.5284 240° Southwest  Level Estimated
05:10AM 51.1337 11.4242 240° Southwest  Level Estimated
05:11AM 51.0958 11.3202 240° Southwest  Level Estimated
05:12AM 51.0578 11.2163 240° Southwest  Level Estimated
05:13AM 51.0198 11.1126 240° Southwest  Level Estimated
05:14AM 50.9816 11.0090 240° Southwest  Level Estimated
05:15AM 50.9434 10.9057 240° Southwest  Level Estimated
05:16AM 50.9051 10.8025 239° Southwest  Level Estimated
05:17AM 50.8666 10.6994 239° Southwest  Level Estimated
05:18AM 50.8281 10.5966 239° Southwest  Level Estimated
05:19AM 50.7895 10.4939 239° Southwest  Level Estimated
05:20AM 50.7508 10.3914 239° Southwest  Level Estimated
05:21AM 50.7121 10.2890 239° Southwest  Level Estimated
05:22AM 50.6732 10.1868 239° Southwest  Level Estimated
05:23AM 50.6342 10.0848 239° Southwest  Level Estimated
05:24AM 50.5952 9.9830 239° Southwest  Level Estimated
05:25AM 50.5560 9.8813 239° Southwest  Level Estimated
05:26AM 50.5168 9.7798 239° Southwest  Level Estimated
05:27AM 50.4644 9.6447 239° Southwest  Level Estimated
05:28AM 50.4118 9.5100 238° Southwest  Level Estimated
05:29AM 50.3590 9.3755 238° Southwest  Level Estimated
05:30AM 50.3061 9.2413 238° Southwest  Level Estimated
05:31AM 50.2531 9.1075 238° Southwest  Level Estimated
05:32AM 50.1999 8.9739 238° Southwest  Level Estimated
05:33AM 50.1465 8.8406 238° Southwest  Level Estimated
05:34AM 50.0930 8.7076 238° Southwest  Level Estimated
05:35AM 50.0393 8.5749 238° Southwest  Level Estimated
05:36AM 49.9855 8.4425 58° Northeast  Level Estimated
05:37AM 50.0393 8.5749 238° Southwest  Level Estimated
05:38AM 49.9855 8.4425 58° Northeast  Level Estimated
05:39AM 50.0393 8.5749 238° Southwest  Level Estimated
05:40AM 49.9855 8.4425 58° Northeast  Level Estimated
05:41AM 50.0393 8.5749 238° Southwest  Level Estimated
05:42AM 49.9855 8.4425 58° Northeast  Level Estimated
05:43AM 50.0393 8.5749 238° Southwest  Level Estimated
05:44AM 49.9855 8.4425 58° Northeast  Level Estimated
05:45AM 50.0393 8.5749 238° Southwest  Level Estimated
05:46AM 49.9855 8.4425 238° Southwest  Level Estimated